Time;durP1;ratioP1;P1;durP2;ratioP2;P2;SDS_P1;SDS_P2;PMS_P1;PMS_P2;Temp;Humidity;BMP_temperature;BMP_pressure;BME280_temperature;BME280_humidity;BME280_pressure;Samples;Min_cycle;Max_cycle;Signal;HPM_P1;HPM_P2
2022/11/24 09:56:41;;;;;;;13.20;4.33;;;;;;;9.61;100.00;98479.16;5122241;27;21075;-82
2022/11/24 09:59:15;;;;;;;8.07;3.40;;;;;;;9.89;100.00;98460.53;5071684;28;38930;-84
2022/11/24 10:01:45;;;;;;;8.27;3.00;;;;;;;10.38;100.00;98481.13;5071805;28;40817;-81
2022/11/24 10:04:17;;;;;;;10.30;3.10;;;;;;;10.56;100.00;98465.75;5088114;28;42685;-82
2022/11/24 10:06:50;;;;;;;7.47;2.60;;;;;;;10.86;100.00;98492.78;5085164;28;42888;-84
2022/11/24 10:09:37;;;;;;;6.60;2.37;;;;;;;11.14;100.00;98502.28;5071158;28;38763;-83
2022/11/24 10:12:18;;;;;;;5.07;2.30;;;;;;;11.44;100.00;98499.28;5088259;28;40601;-82
2022/11/24 10:15:18;;;;;;;7.50;2.50;;;;;;;12.10;100.00;98504.16;5070938;28;43682;-82
2022/11/24 10:18:01;;;;;;;7.27;2.50;;;;;;;12.25;98.58;98507.47;5071185;28;44115;-81
2022/11/24 10:20:45;;;;;;;3.93;1.87;;;;;;;12.21;95.48;98493.59;5069277;28;38618;-80
2022/11/24 10:23:34;;;;;;;4.83;2.50;;;;;;;12.23;93.79;98506.75;5086100;28;42479;-81
2022/11/24 10:26:07;;;;;;;4.07;2.43;;;;;;;12.23;93.00;98498.78;5087762;28;42785;-81
2022/11/24 10:28:40;;;;;;;3.13;1.63;;;;;;;12.34;92.96;98496.16;5085000;28;42855;-81
2022/11/24 10:31:21;;;;;;;7.40;2.33;;;;;;;12.30;91.14;98497.34;5087967;28;40022;-82
2022/11/24 10:33:49;;;;;;;4.27;2.20;;;;;;;12.17;90.82;98504.53;5070868;28;40666;-81
2022/11/24 10:36:23;;;;;;;4.50;1.90;;;;;;;12.38;90.93;98505.56;5088686;28;42808;-82
2022/11/24 10:38:59;;;;;;;7.40;2.47;;;;;;;12.67;88.88;98502.53;5070967;28;41376;-82
2022/11/24 10:41:39;;;;;;;4.97;2.13;;;;;;;12.87;86.90;98488.53;5087759;28;42499;-86
2022/11/24 10:44:14;;;;;;;6.60;2.20;;;;;;;13.58;84.35;98509.50;5070961;28;40991;-82
2022/11/24 10:46:42;;;;;;;7.10;2.47;;;;;;;14.79;81.39;98502.16;5070842;28;42109;-82
2022/11/24 10:49:17;;;;;;;5.47;1.73;;;;;;;16.41;76.64;98521.53;5088437;28;43001;-83
2022/11/24 10:51:58;;;;;;;4.77;1.73;;;;;;;16.98;72.43;98511.78;5084815;28;40871;-82
2022/11/24 10:54:26;;;;;;;5.87;2.60;;;;;;;17.19;69.85;98539.19;5084460;28;41473;-81
2022/11/24 10:56:54;;;;;;;5.83;2.10;;;;;;;17.12;65.62;98546.97;5087567;28;42073;-82
2022/11/24 10:59:31;;;;;;;7.20;1.77;;;;;;;16.47;66.17;98534.31;5070619;28;42233;-82
2022/11/24 11:02:00;;;;;;;3.57;1.70;;;;;;;16.29;65.83;98554.72;5084466;28;40002;-82
2022/11/24 11:04:30;;;;;;;4.70;1.40;;;;;;;16.30;66.50;98527.03;5087332;28;42267;-83
2022/11/24 11:07:08;;;;;;;5.93;1.60;;;;;;;16.98;63.80;98559.94;5062357;28;42726;-82
2022/11/24 11:09:37;;;;;;;4.03;1.30;;;;;;;17.00;62.17;98557.97;5071372;28;41849;-83
2022/11/24 11:12:12;;;;;;;3.53;1.57;;;;;;;16.49;62.71;98548.41;5057094;28;38769;-82
2022/11/24 11:14:41;;;;;;;7.07;1.50;;;;;;;15.96;63.98;98538.06;5057165;28;41171;-82
2022/11/24 11:17:34;;;;;;;4.57;1.43;;;;;;;15.69;64.19;98537.88;5056952;28;42492;-82
2022/11/24 11:20:05;;;;;;;5.20;1.80;;;;;;;15.38;64.33;98545.84;5056401;28;43455;-82
2022/11/24 11:22:35;;;;;;;3.83;1.80;;;;;;;15.00;64.23;98545.66;5073894;28;39052;-82
2022/11/24 11:25:07;;;;;;;6.03;1.77;;;;;;;14.81;66.22;98542.88;5073482;28;41589;-83
2022/11/24 11:27:35;;;;;;;6.03;1.50;;;;;;;14.60;67.28;98537.50;5056858;28;42066;-82
2022/11/24 11:30:26;;;;;;;4.60;1.93;;;;;;;14.54;67.80;98544.22;5073070;28;42031;-84
2022/11/24 11:32:57;;;;;;;5.67;1.77;;;;;;;14.37;67.51;98542.91;5056889;28;38760;-84
2022/11/24 11:35:26;;;;;;;3.77;1.77;;;;;;;14.26;67.48;98528.78;5073042;28;42710;-84
2022/11/24 11:37:57;;;;;;;3.33;1.50;;;;;;;14.29;66.83;98517.88;5073691;28;42953;-84
2022/11/24 11:40:27;;;;;;;4.80;1.90;;;;;;;14.56;67.27;98547.59;5056946;28;41316;-83
2022/11/24 11:43:02;;;;;;;3.90;1.73;;;;;;;14.47;66.25;98556.34;5056842;28;38934;-84
2022/11/24 11:45:35;;;;;;;6.60;2.13;;;;;;;14.22;65.90;98549.50;5056359;28;42161;-83
2022/11/24 11:48:21;;;;;;;4.97;2.07;;;;;;;14.20;65.77;98547.97;5056661;28;41705;-82
2022/11/24 11:50:52;;;;;;;6.73;1.90;;;;;;;14.50;66.33;98553.44;5072516;28;42350;-82
2022/11/24 11:53:27;;;;;;;6.27;1.97;;;;;;;14.91;64.58;98552.63;5056816;28;38617;-83
2022/11/24 11:56:08;;;;;;;5.97;2.07;;;;;;;14.82;64.31;98548.06;5072036;28;41730;-81
2022/11/24 11:59:05;;;;;;;10.27;2.70;;;;;;;14.82;62.81;98565.88;5070436;28;42430;-82
2022/11/24 12:02:02;;;;;;;5.53;2.10;;;;;;;15.19;63.24;98564.44;5056154;28;42807;-83
2022/11/24 12:04:42;;;;;;;4.40;1.73;;;;;;;17.33;56.97;98584.22;5070509;28;39859;-83
2022/11/24 12:07:29;;;;;;;5.17;1.73;;;;;;;17.07;56.74;98588.50;5056475;28;42182;-84
2022/11/24 12:10:03;;;;;;;7.33;1.67;;;;;;;16.76;55.83;98599.38;5070975;28;42698;-83
2022/11/24 12:12:47;;;;;;;4.90;1.53;;;;;;;16.50;58.03;98596.38;5072731;28;41427;-82
2022/11/24 12:15:22;;;;;;;5.53;1.60;;;;;;;16.22;57.73;98585.63;5056791;28;39191;-82
2022/11/24 12:17:55;;;;;;;6.37;1.40;;;;;;;15.96;57.07;98595.97;5070518;28;41723;-82
2022/11/24 12:20:47;;;;;;;5.90;1.93;;;;;;;16.04;57.66;98599.69;5074041;28;43798;-83
2022/11/24 12:23:25;;;;;;;3.87;1.83;;;;;;;15.90;59.10;98584.03;5071829;28;43109;-82
2022/11/24 12:26:00;;;;;;;4.37;1.67;;;;;;;15.68;59.13;98610.94;5074647;28;40534;-83
2022/11/24 12:28:37;;;;;;;4.80;1.50;;;;;;;15.22;59.80;98588.16;5074921;28;40764;-82
2022/11/24 12:31:06;;;;;;;6.13;2.10;;;;;;;14.97;60.00;98612.56;5074280;28;43061;-82
2022/11/24 12:34:13;;;;;;;3.27;1.70;;;;;;;14.63;61.16;98610.06;5056285;28;41303;-83
2022/11/24 12:37:07;;;;;;;5.53;2.10;;;;;;;14.41;60.74;98615.47;5072354;28;39970;-82
2022/11/24 12:39:43;;;;;;;5.63;2.13;;;;;;;14.13;61.52;98587.53;5055350;28;41805;-83
2022/11/24 12:42:19;;;;;;;3.87;1.20;;;;;;;14.00;62.18;98587.69;5055834;28;42035;-82
2022/11/24 12:45:01;;;;;;;4.47;1.57;;;;;;;13.93;63.38;98602.47;5055490;28;43435;-83
2022/11/24 12:47:42;;;;;;;5.47;1.80;;;;;;;13.65;63.26;98579.03;5055591;28;41008;-82
2022/11/24 12:50:14;;;;;;;6.20;1.67;;;;;;;13.63;65.01;98594.25;5055103;28;40684;-83
2022/11/24 12:52:48;;;;;;;5.93;1.70;;;;;;;13.50;64.83;98596.19;5055734;28;41769;-82
2022/11/24 12:55:20;;;;;;;4.93;1.70;;;;;;;13.40;65.51;98592.56;5070035;28;42147;-83
2022/11/24 12:57:55;;;;;;;6.63;2.10;;;;;;;13.03;65.50;98552.84;5055498;28;38955;-83
2022/11/24 13:00:27;;;;;;;7.23;1.70;;;;;;;13.19;65.65;98595.94;5055443;28;40776;-83
2022/11/24 13:03:09;;;;;;;6.30;1.63;;;;;;;13.10;66.59;98585.97;5069154;28;42822;-83
2022/11/24 13:05:46;;;;;;;6.20;2.53;;;;;;;13.15;66.17;98604.25;5054998;28;42315;-83
2022/11/24 13:08:15;;;;;;;7.77;1.93;;;;;;;13.03;66.49;98583.91;5055253;28;40415;-82
2022/11/24 13:10:43;;;;;;;5.60;2.20;;;;;;;13.07;66.47;98603.97;5054815;28;41787;-82
2022/11/24 13:13:13;;;;;;;5.27;2.00;;;;;;;12.98;66.56;98610.00;5055069;28;42805;-83
2022/11/24 13:16:11;;;;;;;8.20;2.50;;;;;;;12.89;66.90;98608.88;5071488;28;42087;-82
2022/11/24 13:18:45;;;;;;;3.93;1.70;;;;;;;12.84;67.21;98605.72;5055189;28;39671;-84
2022/11/24 13:21:50;;;;;;;5.33;1.83;;;;;;;12.80;67.55;98609.56;5054671;28;41772;-83
2022/11/24 13:24:25;;;;;;;5.10;2.03;;;;;;;12.73;67.31;98605.69;5054077;28;41893;-82
2022/11/24 13:26:55;;;;;;;8.57;2.23;;;;;;;12.76;67.84;98627.56;5054920;28;41009;-81
2022/11/24 13:29:35;;;;;;;6.63;2.10;;;;;;;12.68;67.96;98626.44;5054569;28;38986;-81
2022/11/24 13:32:51;;;;;;;7.30;1.80;;;;;;;12.66;68.56;98629.19;5071707;28;40914;-82
2022/11/24 13:35:19;;;;;;;6.67;2.13;;;;;;;12.64;69.21;98624.97;5053395;28;41472;-81
2022/11/24 13:37:51;;;;;;;6.17;2.40;;;;;;;12.44;69.37;98607.84;5053704;28;41156;-81
2022/11/24 13:40:51;;;;;;;6.07;2.10;;;;;;;12.48;69.02;98630.59;5070780;28;40209;-82
2022/11/24 13:43:23;;;;;;;4.80;2.13;;;;;;;12.37;69.18;98618.06;5054920;28;40709;-82
2022/11/24 13:45:53;;;;;;;10.00;2.80;;;;;;;12.44;69.10;98623.78;5052834;28;41688;-83
2022/11/24 13:48:57;;;;;;;4.73;2.20;;;;;;;12.49;69.31;98634.91;5053329;28;43535;-85
2022/11/24 13:51:26;;;;;;;5.60;2.73;;;;;;;12.47;68.84;98620.91;5053376;28;40691;-82
2022/11/24 13:53:56;;;;;;;5.97;2.10;;;;;;;12.69;68.77;98644.06;5053869;28;41994;-83
2022/11/24 13:56:29;;;;;;;5.33;2.10;;;;;;;12.83;68.67;98647.41;5070328;28;42424;-83
2022/11/24 13:58:59;;;;;;;7.83;2.63;;;;;;;12.97;68.51;98635.75;5053890;28;42234;-82
2022/11/24 14:01:28;;;;;;;9.37;3.10;;;;;;;13.04;67.35;98650.25;5068522;28;40200;-84
2022/11/24 14:04:01;;;;;;;5.87;2.60;;;;;;;13.06;67.75;98653.63;5057024;28;41619;-81
2022/11/24 14:06:32;;;;;;;2.50;1.60;;;;;;;13.05;67.18;98662.56;5047062;28;41767;-83
2022/11/24 14:09:05;;;;;;;8.27;2.00;;;;;;;12.95;66.95;98654.47;5053494;28;41088;-82
2022/11/24 14:11:36;;;;;;;5.33;1.87;;;;;;;12.72;67.31;98623.44;5048181;28;40099;-82
2022/11/24 14:14:14;;;;;;;6.07;2.27;;;;;;;12.87;66.87;98663.94;5047880;28;40817;-82
2022/11/24 14:16:41;;;;;;;5.27;1.70;;;;;;;12.76;66.55;98669.22;5041467;28;43405;-82
2022/11/24 14:19:10;;;;;;;3.90;1.80;;;;;;;12.58;66.53;98669.63;5034158;28;44122;-83
2022/11/24 14:21:40;;;;;;;6.50;1.90;;;;;;;12.40;67.09;98665.66;5033954;28;38862;-82
2022/11/24 14:24:13;;;;;;;4.80;2.20;;;;;;;12.05;67.56;98643.47;5050785;28;41719;-82
2022/11/24 14:26:46;;;;;;;6.00;1.70;;;;;;;12.19;68.63;98664.56;5034029;28;41607;-83
2022/11/24 14:29:19;;;;;;;6.33;2.47;;;;;;;12.05;68.93;98641.66;5034757;28;41046;-81
2022/11/24 14:31:53;;;;;;;4.73;1.67;;;;;;;12.07;68.93;98653.03;5048517;28;40946;-83
2022/11/24 14:34:23;;;;;;;4.90;2.07;;;;;;;12.01;69.17;98657.91;5050609;28;40939;-82
2022/11/24 14:36:53;;;;;;;3.53;1.40;;;;;;;11.93;69.96;98661.13;5057752;28;42791;-82
2022/11/24 14:39:22;;;;;;;3.93;1.70;;;;;;;11.86;69.84;98659.88;5045507;28;40796;-83
2022/11/24 14:41:55;;;;;;;5.30;2.03;;;;;;;11.85;70.32;98664.31;5070218;28;40100;-82
2022/11/24 14:44:24;;;;;;;5.30;2.20;;;;;;;11.80;70.13;98671.75;5054874;28;42444;-83
2022/11/24 14:47:01;;;;;;;7.03;2.33;;;;;;;11.68;70.18;98651.34;5054783;28;44350;-81
2022/11/24 14:49:30;;;;;;;5.87;2.50;;;;;;;11.62;70.10;98643.81;5054398;28;41186;-83
2022/11/24 14:52:02;;;;;;;6.53;3.00;;;;;;;11.71;70.50;98672.38;5057155;28;41344;-82
2022/11/24 14:54:31;;;;;;;6.67;2.60;;;;;;;11.65;70.36;98675.44;5074387;28;41694;-82
2022/11/24 14:57:03;;;;;;;3.60;1.97;;;;;;;11.67;70.50;98670.88;5073832;28;42784;-82
2022/11/24 14:59:33;;;;;;;5.17;2.17;;;;;;;11.63;70.46;98674.69;5072420;28;42283;-82
2022/11/24 15:02:01;;;;;;;4.53;1.97;;;;;;;11.53;70.68;98670.97;5073822;28;39909;-83
2022/11/24 15:04:30;;;;;;;7.80;2.17;;;;;;;11.60;70.98;98684.69;5074123;28;41908;-83
2022/11/24 15:07:05;;;;;;;5.00;2.07;;;;;;;11.62;70.90;98693.38;5056689;28;42563;-83
2022/11/24 15:09:38;;;;;;;5.77;2.13;;;;;;;11.54;70.88;98680.63;5083361;28;42960;-81
2022/11/24 15:12:16;;;;;;;3.73;1.70;;;;;;;11.57;70.99;98684.88;5067749;28;38252;-81
2022/11/24 15:14:51;;;;;;;4.83;2.20;;;;;;;11.58;71.11;98690.09;5068356;28;41095;-82
2022/11/24 15:17:20;;;;;;;7.03;1.90;;;;;;;11.46;71.25;98672.38;5068309;28;41347;-80
2022/11/24 15:19:53;;;;;;;5.87;2.27;;;;;;;11.33;71.46;98677.66;5064803;28;42267;-83
2022/11/24 15:22:34;;;;;;;5.40;2.20;;;;;;;11.31;71.92;98690.19;5057226;28;38694;-81
2022/11/24 15:25:03;;;;;;;5.80;1.97;;;;;;;10.94;72.50;98659.16;5074053;28;40617;-82
2022/11/24 15:27:32;;;;;;;5.50;2.50;;;;;;;10.84;72.56;98674.84;5051100;28;41693;-82
2022/11/24 15:30:00;;;;;;;8.70;2.90;;;;;;;10.77;72.75;98697.34;5037208;28;41057;-81
2022/11/24 15:32:27;;;;;;;3.23;1.93;;;;;;;10.50;73.43;98683.28;5052864;28;40316;-82
2022/11/24 15:34:55;;;;;;;8.57;2.63;;;;;;;10.47;73.68;98702.88;5036990;28;41025;-82
2022/11/24 15:37:23;;;;;;;7.80;2.43;;;;;;;10.17;74.08;98667.72;5052855;28;42747;-83
2022/11/24 15:39:50;;;;;;;7.10;2.27;;;;;;;10.19;74.26;98692.34;5036683;28;42503;-82
2022/11/24 15:42:18;;;;;;;5.47;3.10;;;;;;;10.14;74.33;98700.53;5053268;28;41135;-81
2022/11/24 15:44:47;;;;;;;4.00;2.20;;;;;;;9.86;74.81;98671.47;5036863;28;40741;-81
2022/11/24 15:47:15;;;;;;;5.87;2.60;;;;;;;9.98;75.11;98699.81;5052823;28;42866;-81
2022/11/24 15:49:42;;;;;;;4.33;2.50;;;;;;;9.89;75.27;98701.22;5053124;28;40985;-81
2022/11/24 15:52:13;;;;;;;4.77;2.63;;;;;;;9.84;75.50;98700.66;5069704;28;40790;-82
2022/11/24 15:54:41;;;;;;;5.03;2.40;;;;;;;9.66;75.92;98683.28;5036269;28;42889;-83
2022/11/24 15:57:10;;;;;;;6.10;2.90;;;;;;;9.61;75.91;98691.50;5036451;28;41105;-82
2022/11/24 15:59:38;;;;;;;5.43;3.13;;;;;;;9.61;75.90;98703.88;5053160;28;43179;-83
2022/11/24 16:02:08;;;;;;;6.43;2.97;;;;;;;9.15;76.09;98656.41;5057020;28;38515;-82
2022/11/24 16:04:37;;;;;;;6.13;3.03;;;;;;;9.29;76.37;98695.22;5060301;28;42490;-82
2022/11/24 16:07:05;;;;;;;5.93;2.67;;;;;;;9.34;77.01;98709.88;5072769;28;42714;-83
2022/11/24 16:09:33;;;;;;;4.63;2.70;;;;;;;9.46;77.03;98724.16;5067417;28;42192;-82
2022/11/24 16:12:02;;;;;;;5.93;3.23;;;;;;;9.53;76.89;98741.34;5055575;28;39069;-81
2022/11/24 16:14:30;;;;;;;6.13;2.57;;;;;;;9.51;76.74;98732.69;5040143;28;41082;-82
2022/11/24 16:16:58;;;;;;;6.80;2.57;;;;;;;9.46;76.93;98723.31;5050004;28;43416;-82
2022/11/24 16:19:27;;;;;;;8.70;2.73;;;;;;;9.48;77.14;98726.72;5040481;28;42162;-84
2022/11/24 16:21:54;;;;;;;6.97;2.77;;;;;;;9.52;76.86;98734.34;5047585;28;38808;-84
2022/11/24 16:24:22;;;;;;;6.13;2.10;;;;;;;9.49;77.07;98734.56;5056256;28;40326;-83
2022/11/24 16:26:50;;;;;;;7.50;3.47;;;;;;;9.50;77.48;98741.53;5055735;28;41845;-83
2022/11/24 16:29:19;;;;;;;4.27;2.33;;;;;;;9.46;77.12;98740.00;5056263;28;41106;-83
2022/11/24 16:31:47;;;;;;;3.10;2.03;;;;;;;9.40;77.19;98740.38;5072823;28;41156;-82
2022/11/24 16:34:16;;;;;;;7.10;2.43;;;;;;;9.45;77.75;98758.59;5073063;28;41422;-81
2022/11/24 16:36:45;;;;;;;11.60;3.00;;;;;;;9.35;78.30;98753.88;5055272;28;41923;-82
2022/11/24 16:39:13;;;;;;;5.60;2.37;;;;;;;9.19;79.05;98736.34;5052602;28;41182;-83
2022/11/24 16:41:41;;;;;;;4.83;2.70;;;;;;;9.20;78.61;98764.47;5066800;28;41038;-83
2022/11/24 16:44:08;;;;;;;6.40;2.20;;;;;;;9.04;79.14;98748.66;5055853;28;41167;-83
2022/11/24 16:46:36;;;;;;;5.27;3.13;;;;;;;9.04;79.28;98769.78;5055468;28;41671;-83
2022/11/24 16:49:04;;;;;;;5.83;2.57;;;;;;;8.93;80.19;98751.94;5055374;28;41031;-83
2022/11/24 16:51:31;;;;;;;5.80;2.57;;;;;;;8.82;79.91;98748.19;5055188;28;39022;-82
2022/11/24 16:54:02;;;;;;;5.70;2.50;;;;;;;8.86;79.94;98765.59;5055446;28;42195;-82
2022/11/24 16:56:31;;;;;;;4.80;1.97;;;;;;;8.74;79.96;98759.22;5055261;28;41311;-82
2022/11/24 16:58:58;;;;;;;4.77;2.20;;;;;;;8.63;80.39;98748.41;5049220;28;41333;-85
2022/11/24 17:01:28;;;;;;;5.60;2.30;;;;;;;8.63;80.01;98770.38;5040282;28;39331;-84
2022/11/24 17:03:56;;;;;;;4.80;1.90;;;;;;;8.54;80.57;98762.09;5042873;28;40980;-82
2022/11/24 17:06:25;;;;;;;4.90;2.40;;;;;;;8.36;80.90;98739.38;5045388;28;41843;-84
2022/11/24 17:08:55;;;;;;;2.33;2.13;;;;;;;8.37;80.82;98751.66;5035051;28;41180;-82
2022/11/24 17:11:26;;;;;;;6.00;2.43;;;;;;;8.41;80.97;98767.19;5034993;28;38887;-83
2022/11/24 17:13:56;;;;;;;6.90;2.50;;;;;;;8.37;81.15;98759.56;5071515;28;42103;-82
2022/11/24 17:16:25;;;;;;;5.00;2.43;;;;;;;8.36;81.27;98761.34;5040910;28;42408;-85
2022/11/24 17:18:54;;;;;;;5.70;2.20;;;;;;;8.32;81.49;98769.50;5062447;28;40790;-82
2022/11/24 17:21:23;;;;;;;3.00;2.00;;;;;;;8.29;81.14;98773.97;5042790;28;39406;-85
2022/11/24 17:23:54;;;;;;;5.23;2.60;;;;;;;8.04;81.21;98741.09;5048698;28;40617;-83
2022/11/24 17:26:21;;;;;;;4.93;2.77;;;;;;;8.16;81.43;98783.47;5051290;28;42000;-85
2022/11/24 17:28:51;;;;;;;4.27;2.00;;;;;;;7.91;81.79;98744.38;5035028;28;42020;-84
2022/11/24 17:31:21;;;;;;;8.57;2.50;;;;;;;8.10;81.91;98780.34;5044759;28;38907;-83
